Kelso, Missouri
Current Conditions -  °F | °C
As of 9:53 PM on Wednesday 17 Dec 2014 (Local Time) from KCGI Reporting Station
Overcast Overcast  
Wind Chill:   Ceiling: 8500
Heat Index:   Visibility: 10mi
Dew Point: -2°   Wind: 3mph
Humidity: 68%   Direction: 80°E
Pressure: 30.29"   Gusts: NA
Location:  37.19°N, 89.55°W
Report Text: KCGI 180353Z AUTO 08003KT 10SM OVC085 03/M02 A3029 RMK AO2 SLP260 T00331022 TSNO
Loading
Personal Weather Stations






























Interactive Weather Map New forecast layout! Learn more

10-Day Weather Forecast

Advertisements
Track Severe Weather on mobile